createdAt,value
2023-05-04T00:00:10.456Z,60.49
2023-05-04T00:02:38.984Z,60.61
2023-05-04T00:05:07.222Z,60.49
2023-05-04T00:07:34.865Z,60.75
2023-05-04T00:10:01.948Z,61.05
2023-05-04T00:12:29.019Z,61.39
2023-05-04T00:14:56.125Z,61.38
2023-05-04T00:17:23.113Z,61.67
2023-05-04T00:19:50.295Z,61.75
2023-05-04T00:22:17.215Z,62.17
2023-05-04T00:24:44.696Z,62.18
2023-05-04T00:27:11.707Z,62.30
2023-05-04T00:29:38.691Z,62.66
2023-05-04T00:32:06.298Z,62.85
2023-05-04T00:34:36.187Z,62.92
2023-05-04T00:37:03.096Z,63.06
2023-05-04T00:39:30.051Z,63.38
2023-05-04T00:41:57.035Z,63.54
2023-05-04T00:44:24.149Z,63.79
2023-05-04T00:46:53.207Z,63.94
2023-05-04T00:49:21.707Z,64.05
2023-05-04T00:51:51.379Z,64.14
2023-05-04T00:54:19.765Z,64.38
2023-05-04T00:56:47.952Z,64.57
2023-05-04T00:59:15.011Z,64.76
2023-05-04T01:01:42.329Z,65.16
2023-05-04T01:04:10.299Z,65.06
2023-05-04T01:06:49.064Z,65.38
2023-05-04T01:09:32.166Z,65.75
2023-05-04T01:12:08.281Z,65.72
2023-05-04T01:14:37.172Z,66.04
2023-05-04T01:17:07.903Z,66.39
2023-05-04T01:19:35.607Z,66.50
2023-05-04T01:22:04.115Z,66.59
2023-05-04T01:24:32.140Z,66.90
2023-05-04T01:27:09.147Z,67.04
2023-05-04T01:29:48.057Z,67.46
2023-05-04T01:32:19.414Z,67.41
2023-05-04T01:34:46.672Z,67.75
2023-05-04T01:37:13.601Z,68.44
2023-05-04T01:39:40.594Z,68.50
2023-05-04T01:42:07.503Z,68.42
2023-05-04T01:44:34.682Z,68.53
2023-05-04T01:47:01.730Z,68.70
2023-05-04T01:49:28.650Z,68.84
2023-05-04T01:51:55.790Z,68.99
2023-05-04T01:54:25.090Z,69.30
2023-05-04T01:56:53.252Z,69.41
2023-05-04T01:59:20.202Z,69.87
2023-05-04T02:01:47.101Z,69.98
2023-05-04T02:04:14.124Z,70.07
2023-05-04T02:06:41.228Z,70.21
2023-05-04T02:09:08.209Z,70.49
2023-05-04T02:11:35.127Z,70.59
2023-05-04T02:14:02.190Z,70.85
2023-05-04T02:16:29.269Z,70.88
2023-05-04T02:18:56.249Z,71.24
2023-05-04T02:21:23.565Z,71.40
2023-05-04T02:23:50.533Z,71.35
2023-05-04T02:26:17.681Z,71.59
2023-05-04T02:28:44.584Z,71.83
2023-05-04T02:31:11.540Z,71.79
2023-05-04T02:33:38.519Z,71.98
2023-05-04T02:36:05.857Z,72.06
2023-05-04T02:38:33.055Z,72.32
2023-05-04T02:41:00.008Z,72.39
2023-05-04T02:43:27.017Z,72.44
2023-05-04T02:45:53.991Z,72.78
2023-05-04T02:48:20.956Z,72.65
2023-05-04T02:50:47.865Z,72.65
2023-05-04T02:53:14.913Z,72.94
2023-05-04T02:55:41.910Z,72.67
2023-05-04T02:58:08.995Z,73.07
2023-05-04T03:00:35.910Z,72.83
2023-05-04T03:03:02.876Z,73.21
2023-05-04T03:05:29.750Z,73.24
2023-05-04T03:07:56.624Z,73.21
2023-05-04T03:10:23.507Z,73.39
2023-05-04T03:12:50.514Z,73.54
2023-05-04T03:15:17.922Z,73.61
2023-05-04T03:17:45.023Z,73.78
2023-05-04T03:20:13.398Z,73.77
2023-05-04T03:22:41.837Z,73.95
2023-05-04T03:25:09.626Z,74.04
2023-05-04T03:27:36.974Z,74.08
2023-05-04T03:30:04.686Z,74.31
2023-05-04T03:32:31.882Z,74.28
2023-05-04T03:34:58.942Z,74.51
2023-05-04T03:37:25.935Z,74.83
2023-05-04T03:39:52.925Z,74.68
2023-05-04T03:42:19.849Z,74.95
2023-05-04T03:44:47.506Z,75.19
2023-05-04T03:47:15.263Z,75.28
2023-05-04T03:49:42.236Z,75.33
2023-05-04T03:52:09.201Z,75.72
2023-05-04T03:54:37.711Z,75.71
2023-05-04T03:57:04.678Z,75.73
2023-05-04T03:59:33.750Z,75.83
2023-05-04T04:02:04.144Z,76.00
2023-05-04T04:04:31.167Z,76.08
2023-05-04T04:06:58.231Z,75.83
2023-05-04T04:09:25.825Z,76.39
2023-05-04T04:11:52.736Z,76.26
2023-05-04T04:14:19.675Z,76.54
2023-05-04T04:16:46.668Z,76.63
2023-05-04T04:19:13.618Z,76.82
2023-05-04T04:21:40.596Z,76.48
2023-05-04T04:24:07.534Z,76.49
2023-05-04T04:26:35.187Z,76.36
2023-05-04T04:29:02.086Z,76.50
2023-05-04T04:31:30.455Z,76.30
2023-05-04T04:33:57.803Z,76.18
2023-05-04T04:36:24.752Z,75.87
2023-05-04T04:38:52.394Z,75.80
2023-05-04T04:41:19.281Z,75.78
2023-05-04T04:43:46.313Z,75.37
2023-05-04T04:46:13.251Z,74.90
2023-05-04T04:48:40.231Z,74.58
2023-05-04T04:51:11.470Z,73.99
2023-05-04T04:53:39.247Z,73.10
2023-05-04T04:56:07.529Z,72.02
2023-05-04T04:58:34.443Z,70.44
2023-05-04T05:01:04.760Z,69.82
2023-05-04T05:03:32.160Z,69.02
2023-05-04T05:06:01.699Z,67.56
2023-05-04T05:08:28.546Z,64.54
2023-05-04T05:10:56.236Z,63.25
2023-05-04T05:13:23.182Z,63.40
2023-05-04T05:15:50.402Z,63.19
2023-05-04T05:18:17.351Z,62.38
2023-05-04T05:20:44.330Z,61.29
2023-05-04T05:23:11.389Z,60.56
2023-05-04T05:25:39.222Z,60.22
2023-05-04T05:28:07.099Z,59.39
2023-05-04T05:30:34.195Z,58.55
2023-05-04T05:33:01.232Z,58.19
2023-05-04T05:35:28.194Z,58.01
2023-05-04T05:37:56.034Z,57.86
2023-05-04T05:40:22.892Z,57.90
2023-05-04T05:42:50.292Z,57.91
2023-05-04T05:45:17.213Z,58.25
2023-05-04T05:47:44.147Z,58.13
2023-05-04T05:50:13.766Z,57.74
2023-05-04T05:52:40.834Z,58.34
2023-05-04T05:55:08.390Z,59.75
2023-05-04T05:57:35.373Z,60.59
2023-05-04T06:00:02.502Z,61.11
2023-05-04T06:02:39.552Z,61.55
2023-05-04T06:05:07.106Z,62.04
2023-05-04T06:07:34.027Z,62.30
2023-05-04T06:10:01.111Z,62.01
2023-05-04T06:12:28.195Z,61.56
2023-05-04T06:14:55.216Z,61.61
2023-05-04T06:17:22.134Z,61.49
2023-05-04T06:19:51.136Z,60.97
2023-05-04T06:22:18.120Z,60.94
2023-05-04T06:24:45.019Z,61.29
2023-05-04T06:27:11.984Z,61.28
2023-05-04T06:29:40.286Z,60.52
2023-05-04T06:32:10.304Z,60.59
2023-05-04T06:34:37.408Z,60.55
2023-05-04T06:37:04.440Z,59.98
2023-05-04T06:39:31.477Z,59.23
2023-05-04T06:41:58.482Z,59.17
2023-05-04T06:44:27.501Z,59.27
2023-05-04T06:46:54.520Z,58.76
2023-05-04T06:49:21.501Z,59.11
2023-05-04T06:51:48.536Z,58.93
2023-05-04T06:54:15.697Z,58.96
2023-05-04T06:56:43.333Z,59.30
2023-05-04T06:59:10.830Z,59.10
2023-05-04T07:01:37.927Z,59.11
2023-05-04T07:04:05.385Z,58.59
2023-05-04T07:06:32.537Z,58.91
2023-05-04T07:09:00.058Z,57.92
2023-05-04T07:11:27.948Z,57.71
2023-05-04T07:13:55.284Z,57.11
2023-05-04T07:16:22.434Z,56.42
2023-05-04T07:18:49.702Z,56.91
2023-05-04T07:21:27.838Z,56.26
2023-05-04T07:23:56.215Z,56.27
2023-05-04T07:26:23.431Z,56.23
2023-05-04T07:28:50.732Z,56.75
2023-05-04T07:31:17.841Z,55.45
2023-05-04T07:33:44.976Z,55.44
2023-05-04T07:36:11.884Z,55.51
2023-05-04T07:38:38.833Z,55.77
2023-05-04T07:41:07.228Z,54.94
2023-05-04T07:43:34.214Z,54.70
2023-05-04T07:46:01.632Z,53.41
2023-05-04T07:48:28.920Z,54.11
2023-05-04T07:50:56.054Z,54.13
2023-05-04T07:53:25.350Z,53.71
2023-05-04T07:55:54.397Z,54.10
2023-05-04T07:58:21.360Z,53.36
2023-05-04T08:00:48.461Z,53.15
2023-05-04T08:03:15.600Z,53.49
2023-05-04T08:05:42.666Z,53.42
2023-05-04T08:08:09.605Z,52.31
2023-05-04T08:10:38.477Z,51.39
2023-05-04T08:13:05.838Z,51.44
2023-05-04T08:15:32.919Z,51.47
2023-05-04T08:18:00.044Z,51.26
2023-05-04T08:20:27.052Z,51.82
2023-05-04T08:22:54.153Z,50.21
2023-05-04T08:25:22.599Z,47.89
2023-05-04T08:27:50.031Z,48.02
2023-05-04T08:30:17.325Z,48.36
2023-05-04T08:32:44.411Z,48.12
2023-05-04T08:35:11.443Z,47.85
2023-05-04T08:37:38.385Z,48.46
2023-05-04T08:40:06.193Z,46.12
2023-05-04T08:42:34.615Z,46.76
2023-05-04T08:45:01.634Z,46.35
2023-05-04T08:47:29.223Z,46.89
2023-05-04T08:49:56.880Z,46.24
2023-05-04T08:52:25.412Z,44.76
2023-05-04T08:54:58.275Z,44.59
2023-05-04T08:57:27.072Z,44.75
2023-05-04T08:59:55.723Z,45.28
2023-05-04T09:02:24.511Z,44.69
2023-05-04T09:04:53.335Z,44.38
2023-05-04T09:07:22.208Z,43.83
2023-05-04T09:09:52.523Z,45.17
2023-05-04T09:12:19.682Z,44.82
2023-05-04T09:14:46.777Z,44.81
2023-05-04T09:17:25.643Z,43.89
2023-05-04T09:20:03.844Z,44.06
2023-05-04T09:22:31.551Z,43.04
2023-05-04T09:25:13.675Z,42.14
2023-05-04T09:27:42.796Z,42.19
2023-05-04T09:30:12.709Z,41.19
2023-05-04T09:32:46.943Z,41.05
2023-05-04T09:35:29.263Z,41.53
2023-05-04T09:37:59.339Z,41.85
2023-05-04T09:40:37.662Z,41.88
2023-05-04T09:43:04.824Z,41.32
2023-05-04T09:45:48.997Z,42.10
2023-05-04T09:48:21.125Z,41.37
2023-05-04T09:50:51.820Z,42.33
2023-05-04T09:53:25.274Z,40.36
2023-05-04T09:56:05.688Z,40.42
2023-05-04T09:58:34.530Z,41.55
2023-05-04T10:01:01.815Z,41.83
2023-05-04T10:03:30.061Z,41.40
2023-05-04T10:06:00.387Z,40.83
2023-05-04T10:08:28.913Z,40.77
2023-05-04T10:10:57.231Z,39.78
2023-05-04T10:13:25.451Z,41.26
2023-05-04T10:16:01.451Z,40.07
2023-05-04T10:18:53.264Z,40.68
2023-05-04T10:21:29.112Z,41.53
2023-05-04T10:24:14.273Z,40.33
2023-05-04T10:27:05.631Z,40.98
2023-05-04T10:29:34.377Z,40.25
2023-05-04T10:32:02.155Z,41.41
2023-05-04T10:34:33.517Z,40.19
2023-05-04T10:37:03.352Z,39.54
2023-05-04T10:39:35.268Z,39.74
2023-05-04T10:42:05.930Z,39.23
2023-05-04T10:44:55.867Z,39.17
2023-05-04T10:47:34.386Z,38.71
2023-05-04T10:50:15.449Z,39.91
2023-05-04T10:52:58.256Z,39.04
2023-05-04T10:55:26.638Z,37.73
2023-05-04T10:57:56.910Z,38.38
2023-05-04T11:00:40.501Z,36.08
2023-05-04T11:03:08.343Z,36.01
2023-05-04T11:05:48.420Z,37.04
2023-05-04T11:08:24.726Z,35.84
2023-05-04T11:11:09.219Z,35.92
2023-05-04T11:13:46.176Z,35.72
2023-05-04T11:16:22.356Z,35.58
2023-05-04T11:18:49.410Z,35.75
2023-05-04T11:21:28.572Z,35.39
2023-05-04T11:24:00.248Z,35.90
2023-05-04T11:26:28.448Z,35.84
2023-05-04T11:28:55.420Z,34.19
2023-05-04T11:31:22.573Z,34.58
2023-05-04T11:33:52.962Z,35.80
2023-05-04T11:36:21.862Z,35.97
2023-05-04T11:38:49.761Z,33.50
2023-05-04T11:41:16.951Z,33.66
2023-05-04T11:43:46.705Z,33.10
2023-05-04T11:46:16.588Z,33.44
2023-05-04T11:48:44.477Z,32.21
2023-05-04T11:51:11.536Z,32.20
2023-05-04T11:53:40.753Z,32.24
2023-05-04T11:56:09.120Z,32.74
2023-05-04T11:58:36.770Z,33.14
2023-05-04T12:01:04.389Z,32.55
2023-05-04T12:06:05.034Z,31.94
2023-05-04T12:08:41.800Z,32.28
2023-05-04T12:11:21.632Z,31.61
2023-05-04T12:14:01.531Z,30.08
2023-05-04T12:16:28.565Z,31.65
2023-05-04T12:19:21.765Z,31.33
2023-05-04T12:21:52.266Z,31.40
2023-05-04T12:24:24.034Z,31.22
2023-05-04T12:26:51.528Z,30.97
2023-05-04T12:29:18.748Z,31.00
2023-05-04T12:31:45.805Z,30.76
2023-05-04T12:34:12.940Z,28.86
2023-05-04T12:36:39.901Z,28.73
2023-05-04T12:39:06.891Z,29.45
2023-05-04T12:41:33.935Z,30.84
2023-05-04T12:44:01.402Z,28.91
2023-05-04T12:46:28.523Z,29.47
2023-05-04T12:48:55.530Z,28.01
2023-05-04T12:51:22.552Z,28.63
2023-05-04T12:53:49.565Z,27.57
2023-05-04T12:56:16.560Z,28.45
2023-05-04T12:58:43.641Z,28.62
2023-05-04T13:01:11.016Z,27.59
2023-05-04T13:03:38.126Z,28.61
2023-05-04T13:06:06.002Z,29.05
2023-05-04T13:08:33.675Z,27.98
2023-05-04T13:11:00.825Z,27.67
2023-05-04T13:13:29.370Z,27.47
2023-05-04T13:15:57.272Z,28.13
2023-05-04T13:18:27.253Z,27.75
2023-05-04T13:20:56.098Z,27.34
2023-05-04T13:23:24.121Z,26.36
2023-05-04T13:25:51.442Z,27.88
2023-05-04T13:28:19.167Z,27.95
2023-05-04T13:30:46.461Z,27.45
2023-05-04T13:33:27.286Z,27.70
2023-05-04T13:35:57.643Z,27.30
2023-05-04T13:38:24.858Z,27.15
2023-05-04T13:40:51.842Z,25.78
2023-05-04T13:43:18.982Z,25.08
2023-05-04T13:45:48.635Z,26.18
2023-05-04T13:48:15.647Z,25.59
2023-05-04T13:50:42.560Z,24.83
2023-05-04T13:53:11.220Z,26.07
2023-05-04T13:55:38.513Z,26.07
2023-05-04T13:58:05.541Z,26.82
2023-05-04T14:00:32.558Z,26.95
2023-05-04T14:02:59.801Z,26.94
2023-05-04T14:05:27.030Z,26.72
2023-05-04T14:07:54.019Z,25.62
2023-05-04T14:10:21.084Z,25.17
2023-05-04T14:12:48.127Z,25.33
2023-05-04T14:15:16.550Z,25.95
2023-05-04T14:17:43.671Z,25.26
2023-05-04T14:20:11.326Z,25.48
2023-05-04T14:22:41.123Z,24.21
2023-05-04T14:25:08.979Z,25.16
2023-05-04T14:27:36.260Z,25.02
2023-05-04T14:30:05.095Z,24.39
2023-05-04T14:32:32.145Z,24.98
2023-05-04T14:35:10.335Z,24.94
2023-05-04T14:37:40.057Z,25.61
2023-05-04T14:40:10.392Z,24.86
2023-05-04T14:42:38.528Z,24.44
2023-05-04T14:45:07.862Z,24.22
2023-05-04T14:47:35.399Z,25.25
2023-05-04T14:50:02.579Z,24.97
2023-05-04T14:52:29.641Z,25.50
2023-05-04T14:54:56.660Z,24.82
2023-05-04T14:57:23.731Z,24.87
2023-05-04T14:59:51.196Z,24.35
2023-05-04T15:02:19.156Z,24.29
2023-05-04T15:04:46.943Z,25.10
2023-05-04T15:07:18.676Z,24.98
2023-05-04T15:09:45.755Z,24.65
2023-05-04T15:12:12.827Z,25.24
2023-05-04T15:14:39.765Z,25.26
2023-05-04T15:17:07.284Z,24.50
2023-05-04T15:19:38.112Z,23.25
2023-05-04T15:22:06.491Z,24.45
2023-05-04T15:24:33.785Z,24.76
2023-05-04T15:27:01.955Z,24.22
2023-05-04T15:29:29.202Z,24.49
2023-05-04T15:31:56.398Z,24.01
2023-05-04T15:34:23.394Z,23.83
2023-05-04T15:36:50.386Z,23.80
2023-05-04T15:39:17.363Z,24.18
2023-05-04T15:41:44.402Z,24.44
2023-05-04T15:44:11.409Z,24.63
2023-05-04T15:46:38.477Z,24.90
2023-05-04T15:49:05.503Z,24.50
2023-05-04T15:51:32.611Z,23.86
2023-05-04T15:53:59.642Z,24.58
2023-05-04T15:56:26.850Z,23.82
2023-05-04T15:58:53.854Z,23.42
2023-05-04T16:01:20.914Z,23.39
2023-05-04T16:04:06.487Z,23.34
2023-05-04T16:06:33.436Z,22.55
2023-05-04T16:09:00.892Z,23.13
2023-05-04T16:11:28.084Z,23.33
2023-05-04T16:13:55.600Z,22.53
2023-05-04T16:16:24.503Z,22.73
2023-05-04T16:18:51.506Z,22.55
2023-05-04T16:21:19.216Z,22.82
2023-05-04T16:23:46.216Z,23.05
2023-05-04T16:26:13.243Z,23.09
2023-05-04T16:28:41.535Z,22.83
2023-05-04T16:31:11.108Z,23.55
2023-05-04T16:33:38.882Z,23.84
2023-05-04T16:36:06.838Z,23.58
2023-05-04T16:38:34.032Z,22.80
2023-05-04T16:41:01.166Z,22.41
2023-05-04T16:43:28.138Z,22.45
2023-05-04T16:45:55.070Z,22.55
2023-05-04T16:48:22.078Z,22.74
2023-05-04T16:50:49.117Z,23.87
2023-05-04T16:53:16.409Z,23.75
2023-05-04T16:55:43.413Z,23.65
2023-05-04T16:58:10.485Z,23.63
2023-05-04T17:00:41.839Z,23.97
2023-05-04T17:03:09.177Z,23.83
2023-05-04T17:05:36.238Z,23.69
2023-05-04T17:08:03.216Z,23.44
2023-05-04T17:10:30.283Z,23.02
2023-05-04T17:12:57.302Z,23.78
2023-05-04T17:15:24.824Z,23.11
2023-05-04T17:17:51.929Z,23.79
2023-05-04T17:20:18.951Z,23.74
2023-05-04T17:22:46.552Z,23.85
2023-05-04T17:25:13.970Z,23.44
2023-05-04T17:27:43.741Z,23.97
2023-05-04T17:30:11.802Z,23.90
2023-05-04T17:32:38.868Z,22.66
2023-05-04T17:35:16.543Z,22.98
2023-05-04T17:37:50.843Z,23.19
2023-05-04T17:40:17.870Z,21.81
2023-05-04T17:42:44.870Z,22.12
2023-05-04T17:45:12.397Z,21.87
2023-05-04T17:47:39.517Z,21.98
2023-05-04T17:50:07.308Z,21.54
2023-05-04T17:52:34.538Z,21.34
2023-05-04T17:55:01.627Z,21.19
2023-05-04T17:57:28.661Z,22.13
2023-05-04T17:59:55.902Z,22.58
2023-05-04T18:02:22.944Z,22.60
2023-05-04T18:04:49.906Z,22.13
2023-05-04T18:07:16.951Z,22.37
2023-05-04T18:09:43.958Z,22.39
2023-05-04T18:12:11.001Z,22.73
2023-05-04T18:14:37.961Z,23.36
2023-05-04T18:17:04.922Z,23.50
2023-05-04T18:19:34.302Z,24.10
2023-05-04T18:22:01.272Z,24.32
2023-05-04T18:24:28.258Z,24.54
2023-05-04T18:26:55.293Z,25.17
2023-05-04T18:29:22.304Z,25.65
2023-05-04T18:31:49.409Z,25.94
2023-05-04T18:34:16.602Z,26.49
2023-05-04T18:36:43.818Z,26.69
2023-05-04T18:39:10.991Z,27.02
2023-05-04T18:41:38.208Z,27.72
2023-05-04T18:44:15.392Z,27.78
2023-05-04T18:46:42.749Z,28.01
2023-05-04T18:49:09.779Z,28.66
2023-05-04T18:51:36.731Z,28.49
2023-05-04T18:54:04.091Z,29.29
2023-05-04T18:56:31.182Z,29.69
2023-05-04T18:58:58.189Z,30.03
2023-05-04T19:01:26.419Z,30.63
2023-05-04T19:03:53.557Z,30.75
2023-05-04T19:06:20.521Z,31.64
2023-05-04T19:08:47.499Z,32.49
2023-05-04T19:11:14.483Z,33.46
2023-05-04T19:13:41.458Z,34.34
2023-05-04T19:16:12.258Z,35.01
2023-05-04T19:18:39.608Z,36.16
2023-05-04T19:21:06.684Z,36.53
2023-05-04T19:23:34.147Z,37.74
2023-05-04T19:26:01.181Z,39.20
2023-05-04T19:28:28.202Z,39.86
2023-05-04T19:30:55.814Z,40.30
2023-05-04T19:33:26.360Z,40.73
2023-05-04T19:36:01.307Z,41.14
2023-05-04T19:38:28.510Z,41.52
2023-05-04T19:40:55.613Z,41.75
2023-05-04T19:43:22.639Z,42.12
2023-05-04T19:45:49.651Z,42.11
2023-05-04T19:48:17.468Z,42.93
2023-05-04T19:50:44.498Z,43.32
2023-05-04T19:53:11.540Z,42.72
2023-05-04T19:55:38.617Z,43.37
2023-05-04T19:58:06.003Z,43.72
2023-05-04T20:00:33.087Z,43.81
2023-05-04T20:03:00.284Z,44.64
2023-05-04T20:05:27.633Z,44.42
2023-05-04T20:07:54.696Z,44.60
2023-05-04T20:10:21.808Z,44.90
2023-05-04T20:12:49.938Z,45.53
2023-05-04T20:15:17.034Z,45.47
2023-05-04T20:17:44.033Z,46.08
2023-05-04T20:20:11.973Z,46.43
2023-05-04T20:22:38.964Z,47.32
2023-05-04T20:25:06.162Z,47.21
2023-05-04T20:27:33.146Z,47.71
2023-05-04T20:30:00.209Z,48.00
2023-05-04T20:32:28.130Z,48.54
2023-05-04T20:34:55.239Z,48.68
2023-05-04T20:37:22.291Z,48.60
2023-05-04T20:39:52.452Z,48.81
2023-05-04T20:42:19.496Z,49.07
2023-05-04T20:44:46.544Z,50.05
2023-05-04T20:47:13.565Z,50.16
2023-05-04T20:49:40.579Z,49.99
2023-05-04T20:52:07.634Z,50.25
2023-05-04T20:54:34.668Z,50.16
2023-05-04T20:57:01.746Z,50.97
2023-05-04T20:59:28.811Z,50.97
2023-05-04T21:01:56.369Z,50.85
2023-05-04T21:04:23.559Z,51.21
2023-05-04T21:06:50.869Z,51.38
2023-05-04T21:09:17.932Z,51.08
2023-05-04T21:11:44.943Z,51.71
2023-05-04T21:14:12.123Z,51.52
2023-05-04T21:16:39.236Z,51.43
2023-05-04T21:19:06.404Z,51.43
2023-05-04T21:21:37.072Z,51.64
2023-05-04T21:24:04.351Z,51.45
2023-05-04T21:26:31.380Z,51.62
2023-05-04T21:28:58.661Z,51.00
2023-05-04T21:31:25.722Z,51.55
2023-05-04T21:33:52.674Z,51.52
2023-05-04T21:36:20.109Z,51.90
2023-05-04T21:38:47.432Z,51.87
2023-05-04T21:41:16.328Z,51.52
2023-05-04T21:43:43.856Z,51.66
2023-05-04T21:46:12.093Z,51.96
2023-05-04T21:48:40.353Z,51.70
2023-05-04T21:51:07.786Z,52.01
2023-05-04T21:53:34.807Z,52.42
2023-05-04T21:56:11.603Z,52.28
2023-05-04T21:58:40.557Z,52.48
2023-05-04T22:01:08.746Z,52.33
2023-05-04T22:03:36.419Z,52.38
2023-05-04T22:06:04.114Z,52.42
2023-05-04T22:08:31.202Z,52.45
2023-05-04T22:11:01.243Z,52.59
2023-05-04T22:13:28.507Z,52.50
2023-05-04T22:15:55.707Z,52.28
2023-05-04T22:18:23.990Z,52.32
2023-05-04T22:20:51.152Z,52.23
2023-05-04T22:23:18.102Z,52.82
2023-05-04T22:25:45.148Z,52.41
2023-05-04T22:28:12.182Z,52.45
2023-05-04T22:30:39.846Z,52.50
2023-05-04T22:33:07.061Z,52.31
2023-05-04T22:35:34.272Z,52.58
2023-05-04T22:38:01.344Z,52.31
2023-05-04T22:40:28.377Z,52.63
2023-05-04T22:42:55.565Z,52.81
2023-05-04T22:45:22.879Z,52.67
2023-05-04T22:47:50.178Z,52.69
2023-05-04T22:50:17.530Z,52.45
2023-05-04T22:52:44.678Z,52.32
2023-05-04T22:55:12.404Z,52.41
2023-05-04T22:57:39.465Z,52.50
2023-05-04T23:00:07.989Z,52.60
2023-05-04T23:02:36.220Z,52.66
2023-05-04T23:05:04.047Z,52.93
2023-05-04T23:07:31.331Z,52.75
2023-05-04T23:09:58.453Z,52.66
2023-05-04T23:12:27.794Z,52.86
2023-05-04T23:14:54.846Z,53.20
2023-05-04T23:17:22.252Z,53.01
2023-05-04T23:19:50.031Z,53.32
2023-05-04T23:22:17.183Z,53.14
2023-05-04T23:24:44.345Z,53.46
2023-05-04T23:27:11.441Z,53.52
2023-05-04T23:29:38.883Z,53.82
2023-05-04T23:32:06.370Z,53.90
2023-05-04T23:34:33.498Z,54.06
2023-05-04T23:37:00.632Z,54.17
2023-05-04T23:39:27.786Z,54.21
2023-05-04T23:41:54.734Z,54.79
2023-05-04T23:44:21.749Z,54.64
2023-05-04T23:46:48.733Z,54.72
2023-05-04T23:49:15.815Z,54.72
2023-05-04T23:51:42.873Z,54.75
2023-05-04T23:54:09.906Z,54.78
2023-05-04T23:56:37.032Z,54.66
2023-05-04T23:59:04.290Z,55.35
